sensor_id;sensor_type;location;lat;lon;timestamp;pressure;altitude;pressure_sealevel;temperature;humidity
5484;BME280;2764;48.794;8.326;2023-11-19T08:04:52;76207.56;;;-140.34;100.00
5484;BME280;2764;48.794;8.326;2023-11-19T08:05:57;76215.59;;;-140.34;100.00
5484;BME280;2764;48.794;8.326;2023-11-19T08:06:59;76197.50;;;-140.34;100.00
5484;BME280;2764;48.794;8.326;2023-11-19T08:08:01;76193.47;;;-140.34;100.00
5484;BME280;2764;48.794;8.326;2023-11-19T08:09:03;76197.50;;;-140.34;100.00
5484;BME280;2764;48.794;8.326;2023-11-19T08:10:05;76201.53;;;-140.34;100.00
5484;BME280;2764;48.794;8.326;2023-11-19T08:11:11;76179.41;;;-140.34;100.00
5484;BME280;2764;48.794;8.326;2023-11-19T08:12:13;76185.44;;;-140.34;100.00
5484;BME280;2764;48.794;8.326;2023-11-19T08:13:18;76187.44;;;-140.34;100.00
5484;BME280;2764;48.794;8.326;2023-11-19T08:14:22;76169.34;;;-140.34;100.00
5484;BME280;2764;48.794;8.326;2023-11-19T08:15:24;76177.41;;;-140.34;100.00
5484;BME280;2764;48.794;8.326;2023-11-19T08:16:28;76175.38;;;-140.34;100.00
5484;BME280;2764;48.794;8.326;2023-11-19T08:17:30;76173.38;;;-140.34;100.00
5484;BME280;2764;48.794;8.326;2023-11-19T08:18:32;76177.41;;;-140.34;100.00
5484;BME280;2764;48.794;8.326;2023-11-19T08:19:34;76189.47;;;-140.34;100.00
5484;BME280;2764;48.794;8.326;2023-11-19T08:20:36;76193.47;;;-140.34;100.00
5484;BME280;2764;48.794;8.326;2023-11-19T08:21:38;76195.50;;;-140.34;100.00
5484;BME280;2764;48.794;8.326;2023-11-19T08:22:40;76197.50;;;-140.34;100.00
5484;BME280;2764;48.794;8.326;2023-11-19T08:23:41;76189.47;;;-140.34;100.00
5484;BME280;2764;48.794;8.326;2023-11-19T08:24:44;76185.44;;;-140.34;100.00
5484;BME280;2764;48.794;8.326;2023-11-19T08:25:45;76181.41;;;-140.34;100.00
5484;BME280;2764;48.794;8.326;2023-11-19T08:26:47;76177.41;;;-140.34;100.00
5484;BME280;2764;48.794;8.326;2023-11-19T08:28:03;76187.44;;;-140.34;100.00
5484;BME280;2764;48.794;8.326;2023-11-19T08:29:05;76169.34;;;-140.34;100.00
5484;BME280;2764;48.794;8.326;2023-11-19T08:30:07;76175.38;;;-140.34;100.00
5484;BME280;2764;48.794;8.326;2023-11-19T08:31:09;76165.34;;;-140.34;100.00
5484;BME280;2764;48.794;8.326;2023-11-19T08:32:11;76173.38;;;-140.34;100.00
5484;BME280;2764;48.794;8.326;2023-11-19T08:33:12;76177.41;;;-140.34;100.00
5484;BME280;2764;48.794;8.326;2023-11-19T08:34:14;76179.41;;;-140.34;100.00
5484;BME280;2764;48.794;8.326;2023-11-19T08:35:17;76179.41;;;-140.34;100.00
5484;BME280;2764;48.794;8.326;2023-11-19T08:36:19;76191.47;;;-140.34;100.00
5484;BME280;2764;48.794;8.326;2023-11-19T08:37:21;76201.53;;;-140.34;100.00
5484;BME280;2764;48.794;8.326;2023-11-19T08:38:24;76205.53;;;-140.34;100.00
5484;BME280;2764;48.794;8.326;2023-11-19T08:39:30;76209.56;;;-140.34;100.00
5484;BME280;2764;48.794;8.326;2023-11-19T08:40:32;76217.59;;;-140.34;100.00
5484;BME280;2764;48.794;8.326;2023-11-19T08:41:33;76225.66;;;-140.34;100.00
5484;BME280;2764;48.794;8.326;2023-11-19T08:42:35;76225.66;;;-140.34;100.00
5484;BME280;2764;48.794;8.326;2023-11-19T08:43:40;76229.66;;;-140.34;100.00
5484;BME280;2764;48.794;8.326;2023-11-19T08:44:43;76233.69;;;-140.34;100.00
5484;BME280;2764;48.794;8.326;2023-11-19T08:45:45;76233.69;;;-140.34;100.00
5484;BME280;2764;48.794;8.326;2023-11-19T08:46:50;76253.78;;;-140.34;100.00
5484;BME280;2764;48.794;8.326;2023-11-19T08:47:52;76267.88;;;-140.34;100.00
5484;BME280;2764;48.794;8.326;2023-11-19T08:48:54;76273.91;;;-140.34;100.00
5484;BME280;2764;48.794;8.326;2023-11-19T08:49:58;76265.84;;;-140.34;100.00
5484;BME280;2764;48.794;8.326;2023-11-19T08:51:02;76277.91;;;-140.34;100.00
5484;BME280;2764;48.794;8.326;2023-11-19T08:52:06;76279.94;;;-140.34;100.00
5484;BME280;2764;48.794;8.326;2023-11-19T08:53:12;76281.94;;;-140.34;100.00
5484;BME280;2764;48.794;8.326;2023-11-19T08:54:14;76287.97;;;-140.34;100.00
5484;BME280;2764;48.794;8.326;2023-11-19T08:55:15;76281.94;;;-140.34;100.00
5484;BME280;2764;48.794;8.326;2023-11-19T08:56:18;76283.94;;;-140.34;100.00
5484;BME280;2764;48.794;8.326;2023-11-19T08:57:20;76279.94;;;-140.34;100.00
5484;BME280;2764;48.794;8.326;2023-11-19T08:58:22;76279.94;;;-140.34;100.00
5484;BME280;2764;48.794;8.326;2023-11-19T08:59:24;76271.88;;;-140.34;100.00
5484;BME280;2764;48.794;8.326;2023-11-19T09:00:26;76261.84;;;-140.34;100.00
5484;BME280;2764;48.794;8.326;2023-11-19T09:01:28;76255.81;;;-140.34;100.00
5484;BME280;2764;48.794;8.326;2023-11-19T09:02:30;76243.75;;;-140.34;100.00
5484;BME280;2764;48.794;8.326;2023-11-19T09:03:34;76245.75;;;-140.34;100.00
5484;BME280;2764;48.794;8.326;2023-11-19T09:04:36;76241.72;;;-140.34;100.00
5484;BME280;2764;48.794;8.326;2023-11-19T09:05:38;76243.75;;;-140.34;100.00
5484;BME280;2764;48.794;8.326;2023-11-19T09:06:40;76249.78;;;-140.34;100.00
5484;BME280;2764;48.794;8.326;2023-11-19T09:07:41;76261.84;;;-140.34;100.00
5484;BME280;2764;48.794;8.326;2023-11-19T09:08:43;76261.84;;;-140.34;100.00
5484;BME280;2764;48.794;8.326;2023-11-19T09:09:45;76269.88;;;-140.34;100.00
5484;BME280;2764;48.794;8.326;2023-11-19T09:10:47;76277.91;;;-140.34;100.00
5484;BME280;2764;48.794;8.326;2023-11-19T09:11:48;76269.88;;;-140.34;100.00
5484;BME280;2764;48.794;8.326;2023-11-19T09:12:50;76279.94;;;-140.34;100.00
5484;BME280;2764;48.794;8.326;2023-11-19T09:13:52;76277.91;;;-140.34;100.00
5484;BME280;2764;48.794;8.326;2023-11-19T09:14:54;76261.84;;;-140.34;100.00
5484;BME280;2764;48.794;8.326;2023-11-19T09:15:55;76243.75;;;-140.34;100.00
5484;BME280;2764;48.794;8.326;2023-11-19T09:17:00;76247.75;;;-140.34;100.00
5484;BME280;2764;48.794;8.326;2023-11-19T09:18:02;76239.72;;;-140.34;100.00
5484;BME280;2764;48.794;8.326;2023-11-19T09:19:05;76245.75;;;-140.34;100.00
5484;BME280;2764;48.794;8.326;2023-11-19T09:20:08;76241.72;;;-140.34;100.00
5484;BME280;2764;48.794;8.326;2023-11-19T09:21:11;76243.75;;;-140.34;100.00
5484;BME280;2764;48.794;8.326;2023-11-19T09:22:13;76223.63;;;-140.34;100.00
5484;BME280;2764;48.794;8.326;2023-11-19T09:23:14;76197.50;;;-140.34;100.00
5484;BME280;2764;48.794;8.326;2023-11-19T09:24:16;76203.53;;;-140.34;100.00
5484;BME280;2764;48.794;8.326;2023-11-19T09:25:18;76205.53;;;-140.34;100.00
5484;BME280;2764;48.794;8.326;2023-11-19T09:26:20;76199.50;;;-140.34;100.00
5484;BME280;2764;48.794;8.326;2023-11-19T09:27:21;76197.50;;;-140.34;100.00
5484;BME280;2764;48.794;8.326;2023-11-19T09:28:23;76189.47;;;-140.34;100.00
5484;BME280;2764;48.794;8.326;2023-11-19T09:29:25;76187.44;;;-140.34;100.00
5484;BME280;2764;48.794;8.326;2023-11-19T09:30:26;76185.44;;;-140.34;100.00
5484;BME280;2764;48.794;8.326;2023-11-19T09:31:28;76187.44;;;-140.34;100.00
5484;BME280;2764;48.794;8.326;2023-11-19T09:32:30;76179.41;;;-140.34;100.00
5484;BME280;2764;48.794;8.326;2023-11-19T09:33:32;76199.50;;;-140.34;100.00
5484;BME280;2764;48.794;8.326;2023-11-19T09:34:35;76197.50;;;-140.34;100.00
5484;BME280;2764;48.794;8.326;2023-11-19T09:35:37;76199.50;;;-140.34;100.00
5484;BME280;2764;48.794;8.326;2023-11-19T09:36:39;76211.56;;;-140.34;100.00
5484;BME280;2764;48.794;8.326;2023-11-19T09:37:45;76203.53;;;-140.34;100.00
5484;BME280;2764;48.794;8.326;2023-11-19T09:38:47;76205.53;;;-140.34;100.00
5484;BME280;2764;48.794;8.326;2023-11-19T09:39:48;76207.56;;;-140.34;100.00
5484;BME280;2764;48.794;8.326;2023-11-19T09:40:50;76201.53;;;-140.34;100.00
5484;BME280;2764;48.794;8.326;2023-11-19T09:41:52;76193.47;;;-140.34;100.00
5484;BME280;2764;48.794;8.326;2023-11-19T09:42:54;76195.50;;;-140.34;100.00
5484;BME280;2764;48.794;8.326;2023-11-19T09:43:56;76195.50;;;-140.34;100.00
5484;BME280;2764;48.794;8.326;2023-11-19T09:44:59;76171.38;;;-140.34;100.00
5484;BME280;2764;48.794;8.326;2023-11-19T09:46:04;76135.19;;;-140.34;100.00
5484;BME280;2764;48.794;8.326;2023-11-19T09:47:08;76115.06;;;-140.34;100.00
5484;BME280;2764;48.794;8.326;2023-11-19T09:48:12;76074.88;;;-140.34;100.00
5484;BME280;2764;48.794;8.326;2023-11-19T09:49:14;76046.72;;;-140.34;100.00
5484;BME280;2764;48.794;8.326;2023-11-19T09:50:37;76034.66;;;-140.34;100.00
5484;BME280;2764;48.794;8.326;2023-11-19T09:51:41;76048.72;;;-140.34;98.61
5484;BME280;2764;48.794;8.326;2023-11-19T09:52:43;76022.59;;;-140.34;97.84
5484;BME280;2764;48.794;8.326;2023-11-19T09:53:45;76004.50;;;-140.34;99.22
5484;BME280;2764;48.794;8.326;2023-11-19T09:54:48;75952.22;;;-140.34;98.51
5484;BME280;2764;48.794;8.326;2023-11-19T09:55:50;75875.84;;;-140.34;94.86
5484;BME280;2764;48.794;8.326;2023-11-19T09:56:54;75835.63;;;-140.34;91.52
5484;BME280;2764;48.794;8.326;2023-11-19T09:58:01;75833.63;;;-140.34;89.38
5484;BME280;2764;48.794;8.326;2023-11-19T09:59:03;75837.63;;;-140.34;90.17
5484;BME280;2764;48.794;8.326;2023-11-19T10:00:05;75855.72;;;-140.34;89.93
5484;BME280;2764;48.794;8.326;2023-11-19T10:01:08;75859.75;;;-140.34;90.27
5484;BME280;2764;48.794;8.326;2023-11-19T10:02:16;75928.09;;;-140.34;88.90
5484;BME280;2764;48.794;8.326;2023-11-19T10:03:19;75928.09;;;-140.34;90.18
5484;BME280;2764;48.794;8.326;2023-11-19T10:04:21;75944.19;;;-140.34;91.70
5484;BME280;2764;48.794;8.326;2023-11-19T10:05:24;75956.25;;;-140.34;92.41
5484;BME280;2764;48.794;8.326;2023-11-19T10:06:26;75958.25;;;-140.34;93.79
5484;BME280;2764;48.794;8.326;2023-11-19T10:07:28;75942.19;;;-140.34;93.14
5484;BME280;2764;48.794;8.326;2023-11-19T10:08:30;75827.59;;;-140.34;93.94
5484;BME280;2764;48.794;8.326;2023-11-19T10:09:34;75715.00;;;-140.34;86.18
5484;BME280;2764;48.794;8.326;2023-11-19T10:10:37;75723.06;;;-140.34;82.79
5484;BME280;2764;48.794;8.326;2023-11-19T10:11:39;75725.06;;;-140.34;82.17
5484;BME280;2764;48.794;8.326;2023-11-19T10:12:41;75694.91;;;-140.34;79.89
5484;BME280;2764;48.794;8.326;2023-11-19T10:13:59;75733.09;;;-140.34;80.40
5484;BME280;2764;48.794;8.326;2023-11-19T10:15:02;75763.25;;;-140.34;84.91
5484;BME280;2764;48.794;8.326;2023-11-19T10:16:09;75787.38;;;-140.34;85.37
5484;BME280;2764;48.794;8.326;2023-11-19T10:17:13;75791.41;;;-140.34;86.63
5484;BME280;2764;48.794;8.326;2023-11-19T10:18:15;75823.56;;;-140.34;83.24
5484;BME280;2764;48.794;8.326;2023-11-19T10:19:19;75845.69;;;-140.34;84.00
5484;BME280;2764;48.794;8.326;2023-11-19T10:20:25;75817.53;;;-140.34;86.64
5484;BME280;2764;48.794;8.326;2023-11-19T10:21:27;75785.38;;;-140.34;84.04
5484;BME280;2764;48.794;8.326;2023-11-19T10:22:30;75799.44;;;-140.34;83.18
5484;BME280;2764;48.794;8.326;2023-11-19T10:23:50;75805.47;;;-140.34;85.15
5484;BME280;2764;48.794;8.326;2023-11-19T10:24:53;75835.63;;;-140.34;83.48
5484;BME280;2764;48.794;8.326;2023-11-19T10:26:04;75793.41;;;-140.34;84.39
5484;BME280;2764;48.794;8.326;2023-11-19T10:27:07;75753.22;;;-140.34;82.73
5484;BME280;2764;48.794;8.326;2023-11-19T10:28:10;75741.16;;;-140.34;85.04
5484;BME280;2764;48.794;8.326;2023-11-19T10:29:13;75680.84;;;-140.34;82.30
5484;BME280;2764;48.794;8.326;2023-11-19T10:30:24;75614.50;;;-140.34;78.54
5484;BME280;2764;48.794;8.326;2023-11-19T10:31:29;75560.22;;;-140.34;75.71
5484;BME280;2764;48.794;8.326;2023-11-19T10:32:31;75540.13;;;-140.34;70.65
5484;BME280;2764;48.794;8.326;2023-11-19T10:33:34;75570.28;;;-140.34;69.40
5484;BME280;2764;48.794;8.326;2023-11-19T10:34:38;75574.28;;;-140.34;69.60
5484;BME280;2764;48.794;8.326;2023-11-19T10:35:54;75646.66;;;-140.34;70.76
5484;BME280;2764;48.794;8.326;2023-11-19T10:37:00;75666.78;;;-140.34;71.14
5484;BME280;2764;48.794;8.326;2023-11-19T10:38:15;75626.56;;;-140.34;71.10
5484;BME280;2764;48.794;8.326;2023-11-19T10:39:17;75602.44;;;-140.34;70.40
5484;BME280;2764;48.794;8.326;2023-11-19T10:40:19;75562.25;;;-140.34;68.89
5484;BME280;2764;48.794;8.326;2023-11-19T10:41:31;75608.47;;;-140.34;66.06
5484;BME280;2764;48.794;8.326;2023-11-19T10:42:33;75658.72;;;-140.34;65.47
5484;BME280;2764;48.794;8.326;2023-11-19T10:43:44;75721.03;;;-140.34;66.16
5484;BME280;2764;48.794;8.326;2023-11-19T10:44:46;75727.06;;;-140.34;67.04
5484;BME280;2764;48.794;8.326;2023-11-19T10:45:49;75737.13;;;-140.34;67.67
5484;BME280;2764;48.794;8.326;2023-11-19T10:46:53;75745.16;;;-140.34;69.70
5484;BME280;2764;48.794;8.326;2023-11-19T10:47:56;75781.34;;;-140.34;68.25
5484;BME280;2764;48.794;8.326;2023-11-19T10:48:59;75817.53;;;-140.34;69.28
5484;BME280;2764;48.794;8.326;2023-11-19T10:50:01;75835.63;;;-140.34;71.40
5484;BME280;2764;48.794;8.326;2023-11-19T10:51:05;75855.72;;;-140.34;73.26
5484;BME280;2764;48.794;8.326;2023-11-19T10:52:09;75865.78;;;-140.34;70.35
5484;BME280;2764;48.794;8.326;2023-11-19T10:53:12;75869.81;;;-140.34;71.04
5484;BME280;2764;48.794;8.326;2023-11-19T10:54:19;75863.78;;;-140.34;71.30
5484;BME280;2764;48.794;8.326;2023-11-19T10:55:29;75863.78;;;-140.34;71.56
5484;BME280;2764;48.794;8.326;2023-11-19T10:56:33;75887.91;;;-140.34;71.28
5484;BME280;2764;48.794;8.326;2023-11-19T10:57:36;75883.88;;;-140.34;70.74
5484;BME280;2764;48.794;8.326;2023-11-19T10:58:43;75871.81;;;-140.34;71.58
5484;BME280;2764;48.794;8.326;2023-11-19T10:59:47;75875.84;;;-140.34;72.53
5484;BME280;2764;48.794;8.326;2023-11-19T11:00:55;75859.75;;;-140.34;73.64
5484;BME280;2764;48.794;8.326;2023-11-19T11:02:00;75853.72;;;-140.34;73.36
5484;BME280;2764;48.794;8.326;2023-11-19T11:03:24;75841.66;;;-140.34;70.88
5484;BME280;2764;48.794;8.326;2023-11-19T11:04:29;75827.59;;;-140.34;70.03
5484;BME280;2764;48.794;8.326;2023-11-19T11:05:33;75793.41;;;-140.34;69.70
5484;BME280;2764;48.794;8.326;2023-11-19T11:06:36;75775.31;;;-140.34;69.49
5484;BME280;2764;48.794;8.326;2023-11-19T11:07:39;75751.19;;;-140.34;68.70
5484;BME280;2764;48.794;8.326;2023-11-19T11:08:42;75721.03;;;-140.34;67.27
5484;BME280;2764;48.794;8.326;2023-11-19T11:09:45;75727.06;;;-140.34;66.11
5484;BME280;2764;48.794;8.326;2023-11-19T11:10:54;75674.81;;;-140.34;66.16
5484;BME280;2764;48.794;8.326;2023-11-19T11:11:59;75534.09;;;-140.34;64.77
5484;BME280;2764;48.794;8.326;2023-11-19T11:13:03;75363.22;;;-140.34;62.79
5484;BME280;2764;48.794;8.326;2023-11-19T11:14:06;75222.53;;;-140.34;57.33
5484;BME280;2764;48.794;8.326;2023-11-19T11:15:11;75174.28;;;-140.34;52.87
5484;BME280;2764;48.794;8.326;2023-11-19T11:16:19;75260.72;;;-140.34;51.56
5484;BME280;2764;48.794;8.326;2023-11-19T11:17:24;75308.97;;;-140.34;52.74
5484;BME280;2764;48.794;8.326;2023-11-19T11:18:29;75371.28;;;-140.34;55.09
5484;BME280;2764;48.794;8.326;2023-11-19T11:19:31;75453.69;;;-140.34;57.40
5484;BME280;2764;48.794;8.326;2023-11-19T11:20:33;75451.69;;;-140.34;59.32
5484;BME280;2764;48.794;8.326;2023-11-19T11:21:37;75417.50;;;-140.34;57.54
5484;BME280;2764;48.794;8.326;2023-11-19T11:22:59;75505.94;;;-140.34;58.23
5484;BME280;2764;48.794;8.326;2023-11-19T11:24:37;75548.16;;;-140.34;59.77
5484;BME280;2764;48.794;8.326;2023-11-19T11:28:49;75530.06;;;-140.34;59.50
5484;BME280;2764;48.794;8.326;2023-11-19T11:31:30;75302.94;;;-140.34;52.46
5484;BME280;2764;48.794;8.326;2023-11-19T11:35:55;75079.81;;;-140.34;48.98
5484;BME280;2764;48.794;8.326;2023-11-19T11:37:25;74967.28;;;-140.34;48.00
5484;BME280;2764;48.794;8.326;2023-11-19T11:38:28;74923.06;;;-140.34;45.72
5484;BME280;2764;48.794;8.326;2023-11-19T11:39:30;74953.19;;;-140.34;45.91
5484;BME280;2764;48.794;8.326;2023-11-19T11:40:32;74963.25;;;-140.34;45.30
5484;BME280;2764;48.794;8.326;2023-11-19T11:41:34;75027.56;;;-140.34;44.88
5484;BME280;2764;48.794;8.326;2023-11-19T11:42:37;75154.19;;;-140.34;45.95
5484;BME280;2764;48.794;8.326;2023-11-19T11:43:48;75292.88;;;-140.34;47.84
5484;BME280;2764;48.794;8.326;2023-11-19T11:45:10;75425.53;;;-140.34;50.27
5484;BME280;2764;48.794;8.326;2023-11-19T11:48:45;75564.25;;;-140.34;55.27
5484;BME280;2764;48.794;8.326;2023-11-19T11:49:51;75582.34;;;-140.34;56.10
5484;BME280;2764;48.794;8.326;2023-11-19T11:50:57;75568.25;;;-140.34;56.56
5484;BME280;2764;48.794;8.326;2023-11-19T11:52:00;75566.25;;;-140.34;56.77
5484;BME280;2764;48.794;8.326;2023-11-19T11:54:08;75546.16;;;-140.34;56.51
5484;BME280;2764;48.794;8.326;2023-11-19T11:55:09;75503.94;;;-140.34;55.32
5484;BME280;2764;48.794;8.326;2023-11-19T11:56:13;75487.88;;;-140.34;54.78
5484;BME280;2764;48.794;8.326;2023-11-19T11:57:16;75526.06;;;-140.34;54.36
5484;BME280;2764;48.794;8.326;2023-11-19T11:58:21;75574.28;;;-140.34;55.38
5484;BME280;2764;48.794;8.326;2023-11-19T11:59:23;75586.34;;;-140.34;56.63
5484;BME280;2764;48.794;8.326;2023-11-19T12:00:39;75610.47;;;-140.34;56.97
5484;BME280;2764;48.794;8.326;2023-11-19T12:01:57;75646.66;;;-140.34;58.70
5484;BME280;2764;48.794;8.326;2023-11-19T12:03:00;75654.72;;;-140.34;56.54
5484;BME280;2764;48.794;8.326;2023-11-19T12:04:04;75650.69;;;-140.34;57.40
5484;BME280;2764;48.794;8.326;2023-11-19T12:05:07;75642.66;;;-140.34;57.45
5484;BME280;2764;48.794;8.326;2023-11-19T12:06:10;75650.69;;;-140.34;58.86
5484;BME280;2764;48.794;8.326;2023-11-19T12:07:17;75650.69;;;-140.34;59.30
5484;BME280;2764;48.794;8.326;2023-11-19T12:08:25;75652.69;;;-140.34;59.25
5484;BME280;2764;48.794;8.326;2023-11-19T12:09:27;75624.56;;;-140.34;59.71
5484;BME280;2764;48.794;8.326;2023-11-19T12:10:31;75634.59;;;-140.34;58.97
5484;BME280;2764;48.794;8.326;2023-11-19T12:11:33;75674.81;;;-140.34;60.28
5484;BME280;2764;48.794;8.326;2023-11-19T12:12:36;75662.75;;;-140.34;60.79
5484;BME280;2764;48.794;8.326;2023-11-19T12:13:56;75634.59;;;-140.34;60.36
5484;BME280;2764;48.794;8.326;2023-11-19T12:15:05;75658.72;;;-140.34;60.19
5484;BME280;2764;48.794;8.326;2023-11-19T12:16:07;75654.72;;;-140.34;57.99
5484;BME280;2764;48.794;8.326;2023-11-19T12:18:39;75711.00;;;-140.34;60.54
5484;BME280;2764;48.794;8.326;2023-11-19T12:19:42;75678.81;;;-140.34;61.44
5484;BME280;2764;48.794;8.326;2023-11-19T12:20:44;75616.50;;;-140.34;59.61
5484;BME280;2764;48.794;8.326;2023-11-19T12:21:46;75530.06;;;-140.34;58.70
5484;BME280;2764;48.794;8.326;2023-11-19T12:22:48;75457.72;;;-140.34;55.53
5484;BME280;2764;48.794;8.326;2023-11-19T12:23:51;75365.25;;;-140.34;54.27
5484;BME280;2764;48.794;8.326;2023-11-19T12:24:56;75240.63;;;-140.34;52.52
5484;BME280;2764;48.794;8.326;2023-11-19T12:25:58;75192.38;;;-140.34;49.42
5484;BME280;2764;48.794;8.326;2023-11-19T12:27:00;75162.22;;;-140.34;48.02
5484;BME280;2764;48.794;8.326;2023-11-19T12:28:03;75152.19;;;-140.34;48.32
5484;BME280;2764;48.794;8.326;2023-11-19T12:29:06;75170.28;;;-140.34;47.74
5484;BME280;2764;48.794;8.326;2023-11-19T12:30:11;75198.41;;;-140.34;47.84
5484;BME280;2764;48.794;8.326;2023-11-19T12:31:13;75224.53;;;-140.34;48.98
5484;BME280;2764;48.794;8.326;2023-11-19T12:32:16;75268.75;;;-140.34;48.52
5484;BME280;2764;48.794;8.326;2023-11-19T12:33:18;75383.34;;;-140.34;50.23
5484;BME280;2764;48.794;8.326;2023-11-19T12:34:21;75457.72;;;-140.34;52.09
5484;BME280;2764;48.794;8.326;2023-11-19T12:35:26;75536.09;;;-140.34;53.55
5484;BME280;2764;48.794;8.326;2023-11-19T12:36:29;75570.28;;;-140.34;54.96
5484;BME280;2764;48.794;8.326;2023-11-19T12:37:32;75624.56;;;-140.34;57.75
5484;BME280;2764;48.794;8.326;2023-11-19T12:38:35;75642.66;;;-140.34;58.03
5484;BME280;2764;48.794;8.326;2023-11-19T12:39:37;75652.69;;;-140.34;58.16
5484;BME280;2764;48.794;8.326;2023-11-19T12:40:39;75652.69;;;-140.34;59.73
5484;BME280;2764;48.794;8.326;2023-11-19T12:41:51;75654.72;;;-140.34;58.39
5484;BME280;2764;48.794;8.326;2023-11-19T12:42:56;75666.78;;;-140.34;59.03
5484;BME280;2764;48.794;8.326;2023-11-19T12:44:10;75666.78;;;-140.34;59.58
5484;BME280;2764;48.794;8.326;2023-11-19T12:45:12;75678.81;;;-140.34;59.68
5484;BME280;2764;48.794;8.326;2023-11-19T12:47:23;75731.09;;;-140.34;60.52
5484;BME280;2764;48.794;8.326;2023-11-19T12:48:25;75749.19;;;-140.34;60.99
5484;BME280;2764;48.794;8.326;2023-11-19T12:49:27;75747.19;;;-140.34;61.01
5484;BME280;2764;48.794;8.326;2023-11-19T12:50:29;75745.16;;;-140.34;61.82
5484;BME280;2764;48.794;8.326;2023-11-19T12:51:51;75741.16;;;-140.34;61.56
5484;BME280;2764;48.794;8.326;2023-11-19T12:52:56;75747.19;;;-140.34;62.03
5484;BME280;2764;48.794;8.326;2023-11-19T12:53:59;75723.06;;;-140.34;62.26
5484;BME280;2764;48.794;8.326;2023-11-19T12:55:01;75706.97;;;-140.34;62.18
5484;BME280;2764;48.794;8.326;2023-11-19T12:56:10;75694.91;;;-140.34;60.57
5484;BME280;2764;48.794;8.326;2023-11-19T12:57:12;75670.78;;;-140.34;60.31
5484;BME280;2764;48.794;8.326;2023-11-19T12:58:33;75620.53;;;-140.34;60.44
5484;BME280;2764;48.794;8.326;2023-11-19T12:59:36;75584.34;;;-140.34;57.77
5484;BME280;2764;48.794;8.326;2023-11-19T13:00:38;75530.06;;;-140.34;56.36
5484;BME280;2764;48.794;8.326;2023-11-19T13:01:39;75429.56;;;-140.34;55.69
5484;BME280;2764;48.794;8.326;2023-11-19T13:02:50;75339.13;;;-140.34;53.80
5484;BME280;2764;48.794;8.326;2023-11-19T13:03:51;75292.88;;;-140.34;52.14
5484;BME280;2764;48.794;8.326;2023-11-19T13:04:53;75224.53;;;-140.34;50.71
5484;BME280;2764;48.794;8.326;2023-11-19T13:06:08;75188.38;;;-140.34;51.44
5484;BME280;2764;48.794;8.326;2023-11-19T13:07:10;75230.56;;;-140.34;49.16
5484;BME280;2764;48.794;8.326;2023-11-19T13:08:12;75252.69;;;-140.34;50.03
5484;BME280;2764;48.794;8.326;2023-11-19T13:09:27;75228.56;;;-140.34;49.99
5484;BME280;2764;48.794;8.326;2023-11-19T13:10:29;75286.84;;;-140.34;50.73
5484;BME280;2764;48.794;8.326;2023-11-19T13:11:33;75286.84;;;-140.34;51.35
5484;BME280;2764;48.794;8.326;2023-11-19T13:12:35;75317.00;;;-140.34;51.22
5484;BME280;2764;48.794;8.326;2023-11-19T13:14:00;75431.56;;;-140.34;53.61
5484;BME280;2764;48.794;8.326;2023-11-19T13:15:02;75471.78;;;-140.34;54.26
5484;BME280;2764;48.794;8.326;2023-11-19T13:16:05;75548.16;;;-140.34;56.50
5484;BME280;2764;48.794;8.326;2023-11-19T13:17:14;75564.25;;;-140.34;57.89
5484;BME280;2764;48.794;8.326;2023-11-19T13:18:16;75590.38;;;-140.34;58.06
5484;BME280;2764;48.794;8.326;2023-11-19T13:19:18;75598.41;;;-140.34;58.43
5484;BME280;2764;48.794;8.326;2023-11-19T13:20:21;75604.44;;;-140.34;59.38
5484;BME280;2764;48.794;8.326;2023-11-19T13:21:23;75602.44;;;-140.34;59.65
5484;BME280;2764;48.794;8.326;2023-11-19T13:22:25;75590.38;;;-140.34;59.71
5484;BME280;2764;48.794;8.326;2023-11-19T13:23:27;75588.38;;;-140.34;60.11
5484;BME280;2764;48.794;8.326;2023-11-19T13:24:28;75592.38;;;-140.34;59.93
5484;BME280;2764;48.794;8.326;2023-11-19T13:25:31;75568.25;;;-140.34;59.00
5484;BME280;2764;48.794;8.326;2023-11-19T13:26:34;75526.06;;;-140.34;58.02
5484;BME280;2764;48.794;8.326;2023-11-19T13:27:36;75509.97;;;-140.34;57.42
5484;BME280;2764;48.794;8.326;2023-11-19T13:28:38;75453.69;;;-140.34;57.50
5484;BME280;2764;48.794;8.326;2023-11-19T13:29:40;75455.69;;;-140.34;56.08
5484;BME280;2764;48.794;8.326;2023-11-19T13:30:41;75419.50;;;-140.34;56.34
5484;BME280;2764;48.794;8.326;2023-11-19T13:31:43;75377.31;;;-140.34;54.53
5484;BME280;2764;48.794;8.326;2023-11-19T13:32:45;75325.03;;;-140.34;53.74
5484;BME280;2764;48.794;8.326;2023-11-19T13:33:47;75325.03;;;-140.34;52.65
5484;BME280;2764;48.794;8.326;2023-11-19T13:34:49;75264.75;;;-140.34;52.26
5484;BME280;2764;48.794;8.326;2023-11-19T13:35:52;75232.59;;;-140.34;49.70
5484;BME280;2764;48.794;8.326;2023-11-19T13:36:54;75248.66;;;-140.34;50.82
5484;BME280;2764;48.794;8.326;2023-11-19T13:37:56;75268.75;;;-140.34;50.29
5484;BME280;2764;48.794;8.326;2023-11-19T13:38:59;75333.09;;;-140.34;50.68
5484;BME280;2764;48.794;8.326;2023-11-19T13:40:01;75359.22;;;-140.34;51.68
5484;BME280;2764;48.794;8.326;2023-11-19T13:41:04;75365.25;;;-140.34;51.96
5484;BME280;2764;48.794;8.326;2023-11-19T13:42:06;75381.31;;;-140.34;51.52
5484;BME280;2764;48.794;8.326;2023-11-19T13:43:11;75393.38;;;-140.34;52.50
5484;BME280;2764;48.794;8.326;2023-11-19T13:44:13;75409.47;;;-140.34;52.87
5484;BME280;2764;48.794;8.326;2023-11-19T13:45:15;75447.66;;;-140.34;53.61
5484;BME280;2764;48.794;8.326;2023-11-19T13:46:19;75540.13;;;-140.34;54.42
5484;BME280;2764;48.794;8.326;2023-11-19T13:47:22;75580.31;;;-140.34;55.81
5484;BME280;2764;48.794;8.326;2023-11-19T13:48:25;75634.59;;;-140.34;57.04
5484;BME280;2764;48.794;8.326;2023-11-19T13:49:28;75674.81;;;-140.34;59.18
5484;BME280;2764;48.794;8.326;2023-11-19T13:50:31;75723.06;;;-140.34;60.25
5484;BME280;2764;48.794;8.326;2023-11-19T13:51:33;75735.13;;;-140.34;60.73
5484;BME280;2764;48.794;8.326;2023-11-19T13:52:36;75749.19;;;-140.34;60.67
5484;BME280;2764;48.794;8.326;2023-11-19T13:53:39;75745.16;;;-140.34;60.88
5484;BME280;2764;48.794;8.326;2023-11-19T13:54:44;75759.25;;;-140.34;61.82
5484;BME280;2764;48.794;8.326;2023-11-19T13:55:46;75753.22;;;-140.34;61.70
5484;BME280;2764;48.794;8.326;2023-11-19T13:56:49;75771.31;;;-140.34;63.19
5484;BME280;2764;48.794;8.326;2023-11-19T13:57:51;75791.41;;;-140.34;64.04